Time;durP1;ratioP1;P1;durP2;ratioP2;P2;SDS_P1;SDS_P2;PMS_P1;PMS_P2;Temp;Humidity;BMP_temperature;BMP_pressure;BME280_temperature;BME280_humidity;BME280_pressure;Samples;Min_cycle;Max_cycle;Signal;HPM_P1;HPM_P2
2022/09/09 00:01:11;;;;;;;13.18;9.48;;;;;;;17.33;100.00;63791.94;5002257;28;20222;-76
2022/09/09 00:03:46;;;;;;;10.95;9.20;;;;;;;17.34;100.00;63793.00;5004230;28;20442;-78
2022/09/09 00:06:21;;;;;;;9.25;8.48;;;;;;;17.29;100.00;63785.72;5005926;28;20233;-78
2022/09/09 00:09:03;;;;;;;10.52;9.40;;;;;;;17.28;100.00;63787.28;5006606;28;20194;-78
2022/09/09 00:11:37;;;;;;;9.45;8.55;;;;;;;17.24;100.00;63780.53;5005919;28;20289;-78
2022/09/09 00:14:14;;;;;;;10.65;9.55;;;;;;;17.19;100.00;63777.91;5006576;28;20201;-78
2022/09/09 00:16:45;;;;;;;12.05;9.00;;;;;;;17.23;100.00;63779.50;5007367;28;20449;-77
2022/09/09 00:19:23;;;;;;;14.02;9.70;;;;;;;17.23;100.00;63779.50;5006044;28;20215;-77
2022/09/09 00:21:59;;;;;;;9.57;8.45;;;;;;;17.26;100.00;63784.66;5007948;28;20222;-78
2022/09/09 00:24:30;;;;;;;10.07;9.07;;;;;;;17.23;100.00;63784.63;5009315;28;20225;-79
2022/09/09 00:27:04;;;;;;;9.18;8.45;;;;;;;17.27;100.00;63780.56;5006446;28;20250;-78
2022/09/09 00:29:37;;;;;;;10.00;9.10;;;;;;;17.31;100.00;63784.72;5006563;28;20261;-78
2022/09/09 00:32:14;;;;;;;11.18;8.90;;;;;;;17.29;100.00;63787.78;4989943;28;20452;-77
2022/09/09 00:34:49;;;;;;;9.90;8.85;;;;;;;17.26;100.00;63787.75;5001569;28;20202;-79
2022/09/09 00:37:16;;;;;;;10.00;9.10;;;;;;;17.26;100.00;63787.75;5004620;28;20225;-77
2022/09/09 00:39:46;;;;;;;10.27;8.90;;;;;;;17.23;100.00;63778.97;5007302;28;20273;-78
2022/09/09 00:42:16;;;;;;;9.90;8.98;;;;;;;17.25;100.00;63786.19;5008859;28;20598;-78
2022/09/09 00:44:56;;;;;;;10.60;9.50;;;;;;;17.21;100.00;63782.56;5006053;28;20199;-78
2022/09/09 00:47:45;;;;;;;9.07;8.25;;;;;;;17.22;100.00;63780.50;5006468;28;20273;-78
2022/09/09 00:50:42;;;;;;;14.40;8.77;;;;;;;17.15;100.00;63770.66;5008351;28;20245;-78
2022/09/09 00:53:25;;;;;;;9.00;8.20;;;;;;;17.22;100.00;63780.50;5006768;28;20206;-77
2022/09/09 00:56:01;;;;;;;9.52;8.68;;;;;;;17.13;100.00;63769.09;5003264;28;20392;-77
2022/09/09 00:58:28;;;;;;;9.15;8.23;;;;;;;17.13;100.00;63771.66;5009811;28;20229;-78
2022/09/09 01:01:06;;;;;;;10.60;8.77;;;;;;;17.11;100.00;63772.16;5006684;28;20262;-79
2022/09/09 01:03:36;;;;;;;8.70;7.97;;;;;;;17.15;100.00;63773.72;5003927;28;20215;-79
2022/09/09 01:06:14;;;;;;;10.05;9.25;;;;;;;17.14;100.00;63775.25;4996050;28;20226;-78
2022/09/09 01:09:11;;;;;;;9.10;8.30;;;;;;;17.14;100.00;63772.69;5006175;28;20198;-77
2022/09/09 01:11:48;;;;;;;9.88;8.88;;;;;;;17.19;100.00;63779.94;4987181;28;20297;-77
2022/09/09 01:14:25;;;;;;;9.13;8.32;;;;;;;17.19;100.00;63775.31;5004607;28;20248;-77
2022/09/09 01:16:57;;;;;;;9.43;8.35;;;;;;;17.23;100.00;63782.06;5007458;28;20278;-76
2022/09/09 01:19:39;;;;;;;9.50;8.60;;;;;;;17.22;100.00;63783.09;5006460;28;20222;-76
2022/09/09 01:22:15;;;;;;;8.68;7.88;;;;;;;17.19;100.00;63780.47;4998189;28;20230;-78
2022/09/09 01:24:49;;;;;;;10.23;9.10;;;;;;;17.23;100.00;63776.91;4987571;28;20226;-77
2022/09/09 01:27:19;;;;;;;9.15;8.43;;;;;;;17.21;100.00;63779.97;4998268;28;20222;-78
2022/09/09 01:29:47;;;;;;;9.02;8.13;;;;;;;17.24;100.00;63777.44;5006396;28;20211;-78
2022/09/09 01:32:40;;;;;;;8.43;7.65;;;;;;;17.25;100.00;63783.63;5006642;28;20230;-78
2022/09/09 01:35:11;;;;;;;9.07;8.15;;;;;;;17.27;100.00;63783.13;5005742;28;20203;-78
2022/09/09 01:37:38;;;;;;;8.55;7.68;;;;;;;17.24;100.00;63783.09;5005563;28;20218;-77
2022/09/09 01:40:06;;;;;;;9.65;7.68;;;;;;;17.19;100.00;63774.78;5000410;28;20237;-78
2022/09/09 01:42:35;;;;;;;9.52;8.63;;;;;;;17.13;100.00;63774.22;5005608;28;20463;-78
2022/09/09 01:45:02;;;;;;;10.88;8.15;;;;;;;17.21;100.00;63779.97;5004944;28;20203;-78
2022/09/09 01:47:28;;;;;;;8.55;7.85;;;;;;;17.16;100.00;63774.78;4992358;28;20460;-76
2022/09/09 01:49:55;;;;;;;9.27;8.23;;;;;;;17.15;100.00;63775.78;5000397;28;20214;-78
2022/09/09 01:52:22;;;;;;;9.10;7.70;;;;;;;17.04;100.00;63762.28;5005591;28;20219;-77
2022/09/09 01:54:49;;;;;;;9.50;8.25;;;;;;;17.05;100.00;63757.66;5005967;28;20195;-79
2022/09/09 01:57:21;;;;;;;10.18;8.05;;;;;;;16.99;100.00;63751.94;5005519;28;20417;-79
2022/09/09 02:00:01;;;;;;;9.75;8.65;;;;;;;16.91;100.00;63745.66;5005104;28;20238;-79
2022/09/09 02:02:33;;;;;;;9.85;8.90;;;;;;;16.94;100.00;63748.78;5007912;28;20220;-77
2022/09/09 02:05:12;;;;;;;11.55;8.68;;;;;;;16.87;100.00;63742.03;5006386;28;20199;-78
2022/09/09 02:07:41;;;;;;;10.15;8.00;;;;;;;16.80;100.00;63739.88;5002781;28;20214;-77
2022/09/09 02:10:13;;;;;;;8.48;7.78;;;;;;;16.76;100.00;63733.13;5005337;28;20199;-78
2022/09/09 02:12:45;;;;;;;9.40;8.32;;;;;;;16.73;100.00;63732.06;5002597;28;20223;-78
2022/09/09 02:15:20;;;;;;;9.05;8.35;;;;;;;16.76;100.00;63730.56;4988184;28;20415;-78
2022/09/09 02:17:50;;;;;;;10.70;7.85;;;;;;;16.65;100.00;63719.13;5002015;28;20219;-77
2022/09/09 02:20:19;;;;;;;10.13;8.73;;;;;;;16.66;100.00;63724.78;5006907;28;20227;-77
2022/09/09 02:22:50;;;;;;;9.82;8.82;;;;;;;16.64;100.00;63720.13;5001039;28;20242;-77
2022/09/09 02:25:20;;;;;;;12.15;8.32;;;;;;;16.64;100.00;63718.09;5001941;28;20237;-79
2022/09/09 02:27:51;;;;;;;9.32;8.48;;;;;;;16.54;100.00;63709.72;5006231;28;20218;-78
2022/09/09 02:30:20;;;;;;;12.52;9.30;;;;;;;16.51;100.00;63707.13;4992454;28;20222;-77
2022/09/09 02:32:49;;;;;;;11.20;8.93;;;;;;;16.50;100.00;63703.50;5005558;28;20214;-78
2022/09/09 02:35:21;;;;;;;9.25;8.38;;;;;;;16.31;100.00;63681.16;5003894;28;20257;-78
2022/09/09 02:37:48;;;;;;;10.35;8.02;;;;;;;16.51;100.00;63707.13;5006011;28;20222;-77
2022/09/09 02:40:16;;;;;;;13.88;9.00;;;;;;;16.50;100.00;63703.50;5004630;28;20585;-77
2022/09/09 02:42:45;;;;;;;11.63;8.95;;;;;;;16.49;100.00;63701.97;5004955;28;20250;-78
2022/09/09 02:45:15;;;;;;;9.80;8.88;;;;;;;16.45;100.00;63695.72;5001367;28;20427;-78
2022/09/09 02:47:52;;;;;;;10.52;9.15;;;;;;;16.48;100.00;63700.94;4991640;28;20547;-77
2022/09/09 02:50:23;;;;;;;15.07;10.40;;;;;;;16.47;100.00;63705.53;4985392;28;20365;-78
2022/09/09 02:53:02;;;;;;;13.32;10.65;;;;;;;16.45;100.00;63700.88;4993479;28;20273;-77
2022/09/09 02:55:39;;;;;;;11.10;10.10;;;;;;;16.47;100.00;63705.53;5006774;28;20507;-77
2022/09/09 02:58:10;;;;;;;14.30;11.43;;;;;;;16.49;100.00;63705.06;4985594;28;20206;-78
2022/09/09 03:00:39;;;;;;;13.20;11.77;;;;;;;16.44;100.00;63697.25;4985690;28;20245;-78
2022/09/09 03:03:08;;;;;;;11.95;10.73;;;;;;;16.45;100.00;63703.44;5003618;28;20207;-77
2022/09/09 03:05:35;;;;;;;13.57;11.15;;;;;;;16.41;100.00;63696.19;5004578;28;20237;-78
2022/09/09 03:08:03;;;;;;;11.77;10.52;;;;;;;16.41;100.00;63694.13;5004454;28;20356;-78
2022/09/09 03:10:30;;;;;;;11.32;10.30;;;;;;;16.43;100.00;63695.69;5007547;28;20234;-78
2022/09/09 03:12:56;;;;;;;13.60;9.85;;;;;;;16.38;100.00;63693.06;5004632;28;20237;-77
2022/09/09 03:15:24;;;;;;;10.90;9.75;;;;;;;16.34;100.00;63689.44;5005010;28;20488;-79
2022/09/09 03:17:51;;;;;;;10.80;9.05;;;;;;;16.30;100.00;63687.31;5003739;28;20559;-78
2022/09/09 03:20:19;;;;;;;11.82;10.30;;;;;;;16.22;100.00;63679.53;5003192;28;20236;-78
2022/09/09 03:22:46;;;;;;;11.50;9.38;;;;;;;16.18;100.00;63672.78;5004948;28;20253;-76
2022/09/09 03:25:13;;;;;;;11.30;9.63;;;;;;;16.14;100.00;63666.03;5003718;28;20207;-79
2022/09/09 03:27:40;;;;;;;11.23;10.13;;;;;;;16.20;100.00;63674.88;5007293;28;20438;-78
2022/09/09 03:30:07;;;;;;;11.55;10.38;;;;;;;16.12;100.00;63667.06;5002548;28;20198;-77
2022/09/09 03:32:34;;;;;;;11.38;10.20;;;;;;;16.14;100.00;63668.63;4999368;28;20253;-77
2022/09/09 03:35:01;;;;;;;11.75;10.55;;;;;;;16.16;100.00;63671.22;5003301;28;20232;-78
2022/09/09 03:37:29;;;;;;;12.45;10.20;;;;;;;16.19;100.00;63671.25;5002370;28;20222;-77
2022/09/09 03:39:56;;;;;;;12.05;10.63;;;;;;;16.15;100.00;63672.25;5004667;28;20454;-77
2022/09/09 03:42:23;;;;;;;14.55;11.00;;;;;;;16.18;100.00;63667.66;5000270;28;20277;-78
2022/09/09 03:44:51;;;;;;;11.98;10.82;;;;;;;16.14;100.00;63666.56;5002752;28;20392;-77
2022/09/09 03:47:19;;;;;;;11.48;10.27;;;;;;;16.21;100.00;63678.47;5002376;28;20339;-77
2022/09/09 03:49:46;;;;;;;10.88;9.55;;;;;;;16.20;100.00;63677.94;5002782;28;20725;-78
2022/09/09 03:52:13;;;;;;;10.35;9.20;;;;;;;16.27;100.00;63684.72;5002437;28;20218;-78
2022/09/09 03:54:42;;;;;;;10.00;9.10;;;;;;;16.15;100.00;63672.25;5003816;28;20207;-79
2022/09/09 03:57:10;;;;;;;9.65;8.65;;;;;;;15.97;100.00;63651.47;5001269;28;20226;-78
2022/09/09 03:59:37;;;;;;;10.65;9.63;;;;;;;15.98;100.00;63652.50;5005870;28;20336;-79
2022/09/09 04:02:04;;;;;;;11.55;10.38;;;;;;;16.02;100.00;63651.00;5004185;28;20215;-78
2022/09/09 04:04:31;;;;;;;11.05;9.95;;;;;;;16.05;100.00;63659.25;5003958;28;20206;-78
2022/09/09 04:06:57;;;;;;;12.50;9.43;;;;;;;16.03;100.00;63657.69;5004524;28;20472;-78
2022/09/09 04:09:24;;;;;;;14.00;10.90;;;;;;;16.02;100.00;63656.66;4994096;28;20195;-78
2022/09/09 04:11:54;;;;;;;13.35;9.98;;;;;;;16.05;100.00;63657.22;4984995;28;20233;-79
2022/09/09 04:14:21;;;;;;;10.85;9.77;;;;;;;16.08;100.00;63665.47;4995177;28;20199;-77
2022/09/09 04:16:49;;;;;;;10.93;9.90;;;;;;;16.15;100.00;63670.16;5002960;28;20222;-77
2022/09/09 04:19:15;;;;;;;12.30;11.02;;;;;;;16.18;100.00;63675.88;5004009;28;20237;-77
2022/09/09 04:21:42;;;;;;;11.43;10.07;;;;;;;16.22;100.00;63673.84;5003140;28;20225;-77
2022/09/09 04:24:10;;;;;;;10.32;9.25;;;;;;;16.29;100.00;63678.56;4997327;28;20242;-76
2022/09/09 04:26:38;;;;;;;10.07;9.18;;;;;;;16.28;100.00;63685.75;4997525;28;20219;-78
2022/09/09 04:29:06;;;;;;;11.25;8.93;;;;;;;16.28;100.00;63683.19;5004149;28;20206;-77
2022/09/09 04:31:33;;;;;;;10.57;9.68;;;;;;;16.36;100.00;63691.00;4988186;28;20278;-77
2022/09/09 04:34:04;;;;;;;11.50;10.30;;;;;;;16.41;100.00;63694.13;4987062;28;20219;-77
2022/09/09 04:36:31;;;;;;;13.52;9.55;;;;;;;16.48;100.00;63701.44;4989638;28;20238;-77
2022/09/09 04:38:58;;;;;;;10.93;9.82;;;;;;;16.54;100.00;63712.81;5004915;28;20250;-78
2022/09/09 04:41:25;;;;;;;11.23;10.02;;;;;;;16.56;100.00;63707.19;5002824;28;20219;-79
2022/09/09 04:43:53;;;;;;;11.05;9.98;;;;;;;16.58;100.00;63708.75;5002234;28;20218;-77
2022/09/09 04:46:22;;;;;;;11.52;10.23;;;;;;;16.59;100.00;63714.94;5005898;28;20265;-79
2022/09/09 04:48:49;;;;;;;10.35;9.32;;;;;;;16.62;100.00;63718.56;5006518;28;20183;-78
2022/09/09 04:51:16;;;;;;;11.45;10.25;;;;;;;16.70;100.00;63723.81;5000175;28;20223;-78
2022/09/09 04:53:43;;;;;;;13.13;10.10;;;;;;;16.76;100.00;63733.13;4996518;28;20242;-78
2022/09/09 04:56:12;;;;;;;12.18;11.02;;;;;;;16.84;100.00;63741.47;5008687;28;20215;-78
2022/09/09 04:58:41;;;;;;;11.43;10.35;;;;;;;16.97;100.00;63751.91;5007981;28;20199;-78
2022/09/09 05:01:10;;;;;;;10.68;9.68;;;;;;;17.07;100.00;63762.84;5000078;28;20254;-78
2022/09/09 05:03:39;;;;;;;11.05;9.95;;;;;;;17.19;100.00;63777.91;4993842;28;20207;-78
2022/09/09 05:06:08;;;;;;;11.93;10.68;;;;;;;17.34;100.00;63785.28;5009227;28;20230;-78
2022/09/09 05:08:35;;;;;;;10.75;9.65;;;;;;;17.32;100.00;63790.91;5006349;28;20199;-77
2022/09/09 05:11:02;;;;;;;9.75;8.82;;;;;;;17.48;100.00;63807.06;5007363;28;20226;-77
2022/09/09 05:13:31;;;;;;;10.55;9.55;;;;;;;17.61;100.00;63815.97;5007406;28;20238;-78
2022/09/09 05:15:59;;;;;;;9.85;9.02;;;;;;;17.81;100.00;63841.94;5008660;28;20261;-79
2022/09/09 05:18:25;;;;;;;11.45;9.77;;;;;;;17.97;100.00;63858.63;5000757;28;20195;-79
2022/09/09 05:20:59;;;;;;;10.35;8.93;;;;;;;18.03;100.00;63864.34;4989553;28;20278;-78
2022/09/09 05:23:26;;;;;;;11.35;10.25;;;;;;;17.90;100.00;63853.91;4989900;28;20245;-78
2022/09/09 05:25:56;;;;;;;16.70;10.48;;;;;;;17.72;100.00;63826.91;4987438;28;20290;-78
2022/09/09 05:28:25;;;;;;;12.77;11.25;;;;;;;17.86;100.00;63849.72;5002034;28;20525;-78
2022/09/09 05:30:57;;;;;;;12.43;10.05;;;;;;;18.07;100.00;63868.50;5006131;28;20242;-77
2022/09/09 05:33:25;;;;;;;12.45;10.10;;;;;;;18.07;100.00;63865.94;5001744;28;20219;-79
2022/09/09 05:36:01;;;;;;;10.45;9.48;;;;;;;18.05;100.00;63864.38;4994101;28;20223;-78
2022/09/09 05:38:28;;;;;;;11.13;10.13;;;;;;;17.93;100.00;63849.28;4996260;28;20222;-77
2022/09/09 05:40:56;;;;;;;18.38;10.50;;;;;;;18.05;100.00;63863.88;5005657;28;20245;-78
2022/09/09 05:43:25;;;;;;;11.05;10.00;;;;;;;17.98;100.00;63859.16;4996220;28;20278;-78
2022/09/09 05:46:02;;;;;;;14.45;10.20;;;;;;;18.00;100.00;63858.66;4999558;28;20226;-78
2022/09/09 05:48:30;;;;;;;14.60;11.30;;;;;;;17.89;100.00;63849.75;5002315;28;20195;-78
2022/09/09 05:50:59;;;;;;;14.63;10.60;;;;;;;17.99;100.00;63855.03;4993004;28;20234;-79
2022/09/09 05:53:26;;;;;;;14.48;10.07;;;;;;;18.14;100.00;63880.97;4996020;28;20233;-78
2022/09/09 05:56:00;;;;;;;13.32;11.90;;;;;;;18.13;100.00;63877.88;4999337;28;20219;-77
2022/09/09 05:58:27;;;;;;;15.50;12.07;;;;;;;17.96;100.00;63851.91;5005592;28;20193;-80
2022/09/09 06:01:00;;;;;;;17.45;11.98;;;;;;;18.22;100.00;63884.66;5004842;28;20374;-80
2022/09/09 06:03:27;;;;;;;15.25;12.43;;;;;;;18.56;100.00;63919.59;4992264;28;20450;-79
2022/09/09 06:06:00;;;;;;;12.80;11.50;;;;;;;18.68;100.00;63929.53;4997356;28;20290;-78
2022/09/09 06:08:27;;;;;;;16.00;11.02;;;;;;;18.71;100.00;63937.28;4991803;28;20190;-78
2022/09/09 06:10:54;;;;;;;11.90;10.60;;;;;;;18.47;100.00;63909.69;4991900;28;20237;-76
2022/09/09 06:13:21;;;;;;;17.70;11.43;;;;;;;18.35;100.00;63895.63;5004329;28;20191;-79
2022/09/09 06:15:52;;;;;;;16.42;10.30;;;;;;;18.59;100.00;63919.59;5000508;28;20227;-77
2022/09/09 06:18:19;;;;;;;13.32;9.65;;;;;;;18.53;100.00;63916.47;5001646;28;20218;-78
2022/09/09 06:20:55;;;;;;;11.23;10.10;;;;;;;18.71;100.00;63937.28;5005723;28;20249;-78
2022/09/09 06:23:23;;;;;;;9.23;8.38;;;;;;;18.90;100.00;63957.09;5003819;28;20205;-77
2022/09/09 06:25:50;;;;;;;16.02;9.77;;;;;;;18.87;99.19;63949.31;4999120;28;20243;-76
2022/09/09 06:28:18;;;;;;;11.65;8.55;;;;;;;19.07;98.68;63972.25;4995883;28;20203;-77
2022/09/09 06:30:45;;;;;;;10.90;9.32;;;;;;;19.13;98.03;63978.50;5007901;28;20206;-78
2022/09/09 06:33:12;;;;;;;10.05;7.70;;;;;;;19.17;97.39;63980.59;5008615;28;20195;-79
2022/09/09 06:35:39;;;;;;;9.23;8.30;;;;;;;19.35;97.22;63999.38;5014530;28;20198;-77
2022/09/09 06:38:08;;;;;;;9.53;8.53;;;;;;;19.62;94.86;64027.03;5013665;28;20767;-76
2022/09/09 06:43:07;;;;;;;12.48;7.53;;;;;;;19.76;92.83;64041.63;5058043;23;20246;-77
2022/09/09 06:45:36;;;;;;;9.90;7.90;;;;;;;20.03;91.77;64069.81;5046677;28;20228;-78
2022/09/09 06:48:03;;;;;;;8.70;7.82;;;;;;;20.26;89.14;64096.41;5029816;28;20206;-76
2022/09/09 06:50:30;;;;;;;8.27;7.55;;;;;;;20.24;89.72;64091.72;5030239;28;20194;-78
2022/09/09 06:52:57;;;;;;;7.60;6.95;;;;;;;20.17;89.61;64089.06;5036714;28;20220;-75
2022/09/09 06:55:24;;;;;;;10.48;7.78;;;;;;;20.26;89.29;64098.47;5033908;28;20225;-76
2022/09/09 06:57:52;;;;;;;7.70;7.10;;;;;;;20.63;86.42;64137.09;5017634;28;20229;-74
2022/09/09 07:00:19;;;;;;;7.57;6.97;;;;;;;20.64;86.28;64138.66;5015285;28;20226;-76
2022/09/09 07:02:46;;;;;;;9.25;8.23;;;;;;;20.85;84.05;64151.75;5020031;28;20221;-75
2022/09/09 07:05:15;;;;;;;10.05;7.18;;;;;;;20.81;84.45;64158.47;5025100;28;20393;-74
2022/09/09 07:07:42;;;;;;;11.40;7.00;;;;;;;20.90;84.00;64167.84;5024564;28;20221;-76
2022/09/09 07:10:09;;;;;;;10.18;8.18;;;;;;;21.03;84.11;64175.75;5024404;28;20253;-73
2022/09/09 07:12:36;;;;;;;7.82;7.13;;;;;;;21.11;83.95;64184.63;5023993;28;20397;-75
2022/09/09 07:15:06;;;;;;;8.18;7.45;;;;;;;21.22;83.68;64190.94;5024225;28;20204;-75
2022/09/09 07:17:33;;;;;;;11.00;7.65;;;;;;;21.29;82.36;64203.44;5024363;28;20218;-75
2022/09/09 07:20:00;;;;;;;8.15;7.38;;;;;;;21.29;81.42;64203.44;5023704;28;20429;-76
2022/09/09 07:22:28;;;;;;;7.90;7.07;;;;;;;21.49;79.16;64226.38;5024644;28;20206;-74
2022/09/09 07:24:55;;;;;;;10.20;6.68;;;;;;;21.36;79.05;64215.94;5025437;28;20198;-75
2022/09/09 07:27:22;;;;;;;7.30;6.60;;;;;;;21.20;81.15;64191.44;5024979;28;20210;-75
2022/09/09 07:29:49;;;;;;;8.90;7.13;;;;;;;21.39;80.57;64213.88;5026905;28;20202;-75
2022/09/09 07:32:19;;;;;;;7.68;6.97;;;;;;;21.72;79.31;64243.16;5025788;28;20222;-76
2022/09/09 07:34:46;;;;;;;7.55;6.72;;;;;;;21.85;78.36;64263.50;5024957;28;20190;-76
2022/09/09 07:37:13;;;;;;;11.38;6.88;;;;;;;22.08;77.24;64282.34;5025191;28;20220;-75
2022/09/09 07:39:40;;;;;;;7.60;6.47;;;;;;;22.34;76.34;64314.72;5025021;28;20241;-75
2022/09/09 07:42:10;;;;;;;7.20;6.50;;;;;;;22.38;75.64;64311.63;5026787;28;20225;-76
2022/09/09 07:44:39;;;;;;;8.27;7.57;;;;;;;22.38;73.34;64319.41;5028101;28;20189;-76
2022/09/09 07:47:06;;;;;;;8.02;7.32;;;;;;;22.58;71.42;64339.81;5024639;28;20249;-75
2022/09/09 07:49:35;;;;;;;7.75;6.80;;;;;;;22.37;72.17;64312.66;5025247;28;20198;-74
2022/09/09 07:52:03;;;;;;;7.20;6.45;;;;;;;22.45;71.48;64321.03;5025469;28;20225;-75
2022/09/09 07:54:29;;;;;;;6.93;6.32;;;;;;;22.79;70.84;64359.72;5025911;28;20451;-76
2022/09/09 07:56:56;;;;;;;8.02;7.25;;;;;;;22.88;67.44;64368.59;5025493;28;20218;-75
2022/09/09 07:59:23;;;;;;;8.60;5.93;;;;;;;23.21;65.91;64403.09;5026694;28;20209;-76
2022/09/09 08:01:53;;;;;;;6.60;5.97;;;;;;;23.22;65.87;64406.22;5025041;28;20253;-76
2022/09/09 08:04:21;;;;;;;10.45;6.07;;;;;;;23.41;62.58;64424.06;5026284;28;20198;-75
2022/09/09 08:06:52;;;;;;;10.35;6.53;;;;;;;23.42;62.54;64419.38;5023812;28;20230;-77
2022/09/09 08:09:20;;;;;;;6.35;5.95;;;;;;;23.57;64.03;64437.66;5023963;28;20186;-76
2022/09/09 08:11:47;;;;;;;6.13;5.63;;;;;;;23.88;60.28;64472.72;5024072;28;20260;-75
2022/09/09 08:14:14;;;;;;;8.07;6.00;;;;;;;23.85;60.78;64466.94;5027513;28;20198;-75
2022/09/09 08:16:44;;;;;;;9.55;6.93;;;;;;;24.05;59.07;64485.31;5024659;28;20245;-75
2022/09/09 08:19:11;;;;;;;6.75;5.97;;;;;;;23.71;58.10;64455.44;5023577;28;20206;-77
2022/09/09 08:21:40;;;;;;;6.97;6.00;;;;;;;23.99;58.05;64484.22;5027356;28;20253;-75
2022/09/09 08:24:11;;;;;;;7.60;6.80;;;;;;;24.05;58.09;64490.00;5024898;28;20213;-75
2022/09/09 08:26:41;;;;;;;8.73;7.13;;;;;;;23.89;59.88;64474.28;5024628;28;20329;-75
2022/09/09 08:29:09;;;;;;;10.07;6.55;;;;;;;24.21;57.68;64507.28;5028171;28;20232;-75
2022/09/09 08:31:38;;;;;;;6.57;5.97;;;;;;;24.53;56.38;64535.03;5028164;28;20548;-76
2022/09/09 08:34:07;;;;;;;8.30;6.15;;;;;;;25.06;55.14;64593.16;5028068;28;20237;-75
2022/09/09 08:36:36;;;;;;;8.63;5.72;;;;;;;25.59;55.35;64648.19;5027882;28;20224;-75
2022/09/09 08:39:05;;;;;;;11.73;6.60;;;;;;;26.08;51.60;64702.16;5028351;28;20412;-75
2022/09/09 08:41:53;;;;;;;7.45;6.72;;;;;;;26.15;50.17;64710.03;5027873;28;20233;-76
2022/09/09 08:44:31;;;;;;;7.85;7.10;;;;;;;26.18;49.66;64713.16;5027314;28;20232;-74
2022/09/09 08:47:06;;;;;;;7.32;6.63;;;;;;;26.10;49.32;64704.25;5026829;28;20225;-75
2022/09/09 08:49:59;;;;;;;6.88;6.38;;;;;;;25.95;50.42;64689.06;5027661;28;20277;-76
2022/09/09 08:52:29;;;;;;;7.15;6.32;;;;;;;25.58;51.62;64647.66;5029097;28;20226;-75
2022/09/09 08:55:04;;;;;;;6.88;6.28;;;;;;;25.74;51.70;64667.03;5026962;28;20206;-75
2022/09/09 08:57:41;;;;;;;7.28;6.15;;;;;;;26.18;48.96;64712.63;5033222;28;20228;-76
2022/09/09 09:00:12;;;;;;;9.32;5.78;;;;;;;26.26;47.99;64721.03;5035193;28;20261;-75
2022/09/09 09:02:46;;;;;;;8.23;5.80;;;;;;;26.42;47.97;64732.06;5036167;28;20522;-77
2022/09/09 09:05:24;;;;;;;6.50;5.95;;;;;;;26.72;47.67;64769.28;5032140;28;20545;-75
2022/09/09 09:08:04;;;;;;;7.18;6.45;;;;;;;25.89;48.12;64682.22;5028084;28;20241;-74
2022/09/09 09:10:44;;;;;;;6.05;5.55;;;;;;;25.93;48.74;64681.19;5026851;28;20265;-76
2022/09/09 09:13:16;;;;;;;7.07;6.38;;;;;;;26.08;48.33;64704.78;5026896;28;20194;-76
2022/09/09 09:15:47;;;;;;;6.90;6.22;;;;;;;26.48;48.76;64743.56;5025302;28;20202;-77
2022/09/09 09:18:15;;;;;;;6.60;5.85;;;;;;;26.47;48.25;64742.53;5026450;28;20348;-75
2022/09/09 09:20:52;;;;;;;7.22;5.82;;;;;;;26.71;46.76;64763.03;5027484;28;20229;-75
2022/09/09 09:23:24;;;;;;;6.32;5.82;;;;;;;26.91;45.25;64791.81;5023375;28;20201;-76
2022/09/09 09:25:53;;;;;;;7.28;5.75;;;;;;;27.22;45.26;64821.19;5022961;28;20218;-75
2022/09/09 09:28:24;;;;;;;6.85;6.20;;;;;;;27.44;45.12;64846.91;5018657;28;20201;-75
2022/09/09 09:30:57;;;;;;;7.43;5.53;;;;;;;27.20;46.03;64816.47;5016885;28;20221;-76
2022/09/09 09:33:29;;;;;;;6.63;6.13;;;;;;;26.91;46.30;64786.59;5014079;28;20209;-75
2022/09/09 09:35:56;;;;;;;6.47;5.78;;;;;;;27.04;45.79;64804.94;5013580;28;20265;-75
2022/09/09 09:38:24;;;;;;;6.90;6.35;;;;;;;27.13;46.92;64814.91;5009639;28;20195;-74
2022/09/09 09:40:57;;;;;;;8.63;6.53;;;;;;;27.24;46.52;64820.69;5020285;28;20264;-75
2022/09/09 09:43:28;;;;;;;6.32;5.70;;;;;;;27.17;45.26;64815.97;5021077;28;20273;-77
2022/09/09 09:45:57;;;;;;;10.73;5.80;;;;;;;27.03;46.04;64803.88;5017209;28;20405;-74
2022/09/09 09:48:25;;;;;;;5.82;5.32;;;;;;;26.86;46.21;64788.66;5017807;28;20199;-75
2022/09/09 09:50:55;;;;;;;5.95;5.15;;;;;;;26.46;46.37;64739.38;5022538;28;20222;-75
2022/09/09 09:53:25;;;;;;;6.00;5.40;;;;;;;26.62;46.43;64755.63;5020171;28;20202;-75
2022/09/09 09:55:57;;;;;;;8.43;5.78;;;;;;;26.76;45.81;64778.72;5010619;28;20223;-76
2022/09/09 09:58:27;;;;;;;10.13;6.28;;;;;;;26.51;46.39;64747.25;5009448;28;20368;-74
2022/09/09 10:00:55;;;;;;;15.75;6.90;;;;;;;26.83;47.53;64780.31;5013652;28;20240;-75
2022/09/09 10:03:25;;;;;;;11.15;6.55;;;;;;;27.05;46.73;64806.00;5021090;28;20207;-77
2022/09/09 10:05:53;;;;;;;20.95;9.68;;;;;;;27.02;46.50;64797.63;5025874;28;20226;-77
2022/09/09 10:08:20;;;;;;;20.75;8.60;;;;;;;27.25;45.84;64824.34;5013100;28;20198;-77
2022/09/09 10:11:03;;;;;;;12.25;6.65;;;;;;;27.43;45.61;64845.34;5013827;28;20273;-78
2022/09/09 10:13:41;;;;;;;7.90;5.70;;;;;;;27.30;44.50;64830.13;5025068;28;20232;-78
2022/09/09 10:16:23;;;;;;;8.35;6.22;;;;;;;26.94;44.70;64794.97;5025760;28;20289;-77
2022/09/09 10:18:59;;;;;;;8.23;6.28;;;;;;;26.58;45.15;64751.44;5017547;28;20510;-77
2022/09/09 10:21:42;;;;;;;6.50;5.95;;;;;;;26.35;46.48;64732.56;5014414;28;20461;-78
2022/09/09 10:24:26;;;;;;;10.02;5.55;;;;;;;26.21;46.13;64713.19;5022062;28;20198;-76
2022/09/09 10:27:00;;;;;;;6.05;5.47;;;;;;;25.81;48.00;64674.38;5010863;28;20547;-76
2022/09/09 10:29:45;;;;;;;32.65;9.13;;;;;;;25.97;46.53;64688.50;5023335;28;20507;-78
2022/09/09 10:32:34;;;;;;;9.60;5.97;;;;;;;26.21;46.32;64715.78;5012930;28;20257;-76
2022/09/09 10:35:05;;;;;;;8.75;6.45;;;;;;;26.01;46.84;64692.72;5009985;28;20198;-77
2022/09/09 10:37:45;;;;;;;6.55;5.90;;;;;;;26.04;46.39;64698.50;5016360;28;20258;-76
2022/09/09 10:40:30;;;;;;;6.93;6.22;;;;;;;25.48;48.01;64639.25;5024792;28;20202;-77
2022/09/09 10:43:06;;;;;;;10.00;5.65;;;;;;;25.25;48.12;64615.16;5026876;28;20293;-78
2022/09/09 10:45:46;;;;;;;7.60;5.60;;;;;;;25.17;48.80;64612.50;5029060;28;20289;-76
2022/09/09 10:48:26;;;;;;;6.00;5.32;;;;;;;25.07;49.35;64602.53;5029083;28;20194;-78
2022/09/09 10:51:01;;;;;;;6.47;5.85;;;;;;;25.13;49.12;64601.00;5028597;28;20220;-77
2022/09/09 10:53:37;;;;;;;9.40;5.78;;;;;;;25.37;48.98;64630.34;5022380;28;20241;-77
2022/09/09 10:56:09;;;;;;;9.75;5.80;;;;;;;25.51;48.27;64645.00;5022504;28;20246;-76
2022/09/09 10:58:42;;;;;;;6.28;5.50;;;;;;;25.69;48.52;64661.28;5024829;28;20198;-76
2022/09/09 11:01:16;;;;;;;6.22;5.70;;;;;;;25.57;49.25;64651.31;5020578;28;20233;-78
2022/09/09 11:03:48;;;;;;;9.13;5.68;;;;;;;25.46;48.95;64635.06;5007704;28;20431;-77
2022/09/09 11:06:19;;;;;;;6.85;6.03;;;;;;;25.59;49.02;64653.41;5013699;28;20218;-77
2022/09/09 11:08:47;;;;;;;11.77;6.82;;;;;;;25.54;49.00;64643.44;5024506;28;20206;-77
2022/09/09 11:11:18;;;;;;;6.07;5.65;;;;;;;25.65;48.73;64657.06;5017278;28;20210;-77
2022/09/09 11:13:51;;;;;;;9.10;6.80;;;;;;;25.73;48.13;64660.75;5020856;28;20232;-76
2022/09/09 11:16:28;;;;;;;9.85;6.57;;;;;;;25.86;48.19;64677.00;5013762;28;20236;-77
2022/09/09 11:19:01;;;;;;;8.30;5.85;;;;;;;25.98;48.05;64691.66;5019016;28;20217;-77
2022/09/09 11:21:32;;;;;;;5.93;5.22;;;;;;;26.15;47.80;64712.63;5024559;28;20288;-78
2022/09/09 11:24:04;;;;;;;6.05;5.55;;;;;;;26.30;48.71;64727.31;5021380;28;20190;-77
2022/09/09 11:26:38;;;;;;;12.10;5.97;;;;;;;26.30;48.13;64724.72;5005712;28;20226;-78
2022/09/09 11:29:36;;;;;;;12.50;6.60;;;;;;;26.25;49.60;64725.19;5013071;28;20249;-77
2022/09/09 11:32:36;;;;;;;6.57;6.03;;;;;;;25.90;49.80;64683.28;5006763;28;20223;-77
2022/09/09 11:35:17;;;;;;;6.65;6.05;;;;;;;25.97;50.22;64691.13;5011229;28;20194;-77
2022/09/09 11:38:10;;;;;;;6.90;5.78;;;;;;;26.13;50.12;64702.69;5024477;28;20433;-78
2022/09/09 11:40:39;;;;;;;13.30;6.68;;;;;;;26.30;49.59;64727.31;5029369;28;20209;-77
2022/09/09 11:43:12;;;;;;;6.40;5.80;;;;;;;26.47;51.89;64740.44;5025318;28;20253;-77
2022/09/09 11:45:41;;;;;;;13.50;5.80;;;;;;;26.44;50.09;64737.28;5025492;28;20201;-78